createdAt,value
2022-10-23T00:00:17.179Z,137.02
2022-10-23T00:02:44.331Z,127.15
2022-10-23T00:05:11.517Z,130.70
2022-10-23T00:07:38.424Z,130.05
2022-10-23T00:10:05.470Z,124.28
2022-10-23T00:12:32.533Z,136.20
2022-10-23T00:14:59.250Z,146.00
2022-10-23T00:17:26.125Z,130.48
2022-10-23T00:19:52.704Z,128.80
2022-10-23T00:22:19.474Z,117.35
2022-10-23T00:24:46.045Z,126.22
2022-10-23T00:27:12.647Z,117.25
2022-10-23T00:29:39.460Z,164.13
2022-10-23T00:32:06.087Z,125.93
2022-10-23T00:34:32.740Z,117.85
2022-10-23T00:36:59.364Z,113.97
2022-10-23T00:39:26.071Z,111.00
2022-10-23T00:41:52.845Z,113.35
2022-10-23T00:44:22.243Z,130.90
2022-10-23T00:46:49.727Z,162.80
2022-10-23T00:49:17.098Z,145.98
2022-10-23T00:51:47.523Z,173.93
2022-10-23T00:54:25.364Z,133.23
2022-10-23T00:56:58.924Z,144.32
2022-10-23T00:59:26.742Z,124.78
2022-10-23T01:01:53.539Z,127.38
2022-10-23T01:04:21.263Z,115.30
2022-10-23T01:07:17.603Z,101.35
2022-10-23T01:09:53.057Z,118.25
2022-10-23T01:12:34.532Z,145.52
2022-10-23T01:15:16.415Z,155.20
2022-10-23T01:17:52.039Z,100.18
2022-10-23T01:20:37.003Z,107.38
2022-10-23T01:23:12.699Z,110.13
2022-10-23T01:25:57.615Z,104.03
2022-10-23T01:28:44.123Z,109.70
2022-10-23T01:31:16.452Z,106.07
2022-10-23T01:33:51.468Z,114.53
2022-10-23T01:36:21.357Z,123.05
2022-10-23T01:38:57.533Z,155.10
2022-10-23T01:41:27.911Z,106.63
2022-10-23T01:44:01.718Z,121.28
2022-10-23T01:46:30.286Z,121.00
2022-10-23T01:49:00.522Z,113.70
2022-10-23T01:51:31.157Z,125.50
2022-10-23T01:54:00.617Z,103.53
2022-10-23T01:56:32.149Z,117.30
2022-10-23T01:59:03.500Z,129.63
2022-10-23T02:01:32.635Z,96.63
2022-10-23T02:04:01.211Z,171.55
2022-10-23T02:06:28.784Z,183.75
2022-10-23T02:08:56.152Z,85.88
2022-10-23T02:11:23.146Z,137.10
2022-10-23T02:14:02.202Z,140.65
2022-10-23T02:16:37.803Z,104.63
2022-10-23T02:19:29.164Z,119.07
2022-10-23T02:22:04.993Z,139.90
2022-10-23T02:24:36.646Z,120.40
2022-10-23T02:27:09.904Z,189.77
2022-10-23T02:29:47.443Z,101.03
2022-10-23T02:32:15.334Z,92.60
2022-10-23T02:34:42.156Z,159.88
2022-10-23T02:37:08.821Z,75.35
2022-10-23T02:39:35.831Z,254.02
2022-10-23T02:42:23.473Z,190.50
2022-10-23T02:44:50.215Z,74.82
2022-10-23T02:47:32.127Z,187.60
2022-10-23T02:50:14.238Z,89.07
2022-10-23T02:52:53.561Z,93.05
2022-10-23T02:55:35.680Z,116.55
2022-10-23T02:58:14.358Z,204.60
2022-10-23T03:00:45.515Z,115.53
2022-10-23T03:03:17.373Z,82.90
2022-10-23T03:05:47.275Z,82.95
2022-10-23T03:08:14.852Z,131.15
2022-10-23T03:10:42.890Z,112.50
2022-10-23T03:13:12.748Z,81.00
2022-10-23T03:15:39.491Z,84.35
2022-10-23T03:18:06.221Z,110.00
2022-10-23T03:20:33.067Z,130.32
2022-10-23T03:22:59.749Z,94.60
2022-10-23T03:25:26.397Z,111.13
2022-10-23T03:27:53.176Z,154.52
2022-10-23T03:30:20.077Z,72.20
2022-10-23T03:32:46.797Z,107.63
2022-10-23T03:35:13.505Z,139.15
2022-10-23T03:37:40.238Z,185.18
2022-10-23T03:40:07.655Z,105.18
2022-10-23T03:42:34.500Z,125.28
2022-10-23T03:45:01.074Z,186.93
2022-10-23T03:47:30.230Z,122.70
2022-10-23T03:49:56.989Z,322.52
2022-10-23T03:54:51.300Z,267.13
2022-10-23T03:57:18.412Z,245.60
2022-10-23T03:59:45.028Z,213.07
2022-10-23T04:02:11.730Z,148.52
2022-10-23T04:04:38.512Z,246.73
2022-10-23T04:07:05.263Z,166.43
2022-10-23T04:09:31.931Z,97.63
2022-10-23T04:11:58.611Z,144.25
2022-10-23T04:14:26.054Z,89.32
2022-10-23T04:16:52.733Z,70.53
2022-10-23T04:19:19.416Z,87.80
2022-10-23T04:21:46.054Z,85.20
2022-10-23T04:24:12.685Z,105.85
2022-10-23T04:26:39.604Z,102.05
2022-10-23T04:29:06.327Z,142.52
2022-10-23T04:31:33.158Z,96.05
2022-10-23T04:33:59.970Z,256.58
2022-10-23T04:36:26.645Z,119.55
2022-10-23T04:38:53.397Z,132.68
2022-10-23T04:41:20.034Z,74.72
2022-10-23T04:43:46.675Z,117.88
2022-10-23T04:46:13.308Z,119.55
2022-10-23T04:48:39.972Z,109.50
2022-10-23T04:51:06.839Z,116.07
2022-10-23T04:53:33.760Z,155.40
2022-10-23T04:56:00.898Z,86.10
2022-10-23T04:58:28.935Z,152.93
2022-10-23T05:00:56.403Z,94.70
2022-10-23T05:03:25.366Z,154.50
2022-10-23T05:05:56.521Z,108.65
2022-10-23T05:08:24.077Z,136.68
2022-10-23T05:10:51.285Z,136.48
2022-10-23T05:13:19.899Z,153.45
2022-10-23T05:15:58.544Z,125.53
2022-10-23T05:18:29.330Z,143.73
2022-10-23T05:21:06.963Z,139.40
2022-10-23T05:23:36.681Z,129.15
2022-10-23T05:26:04.545Z,91.15
2022-10-23T05:28:31.232Z,94.10
2022-10-23T05:31:00.792Z,93.43
2022-10-23T05:33:28.294Z,138.23
2022-10-23T05:35:55.261Z,101.00
2022-10-23T05:38:22.652Z,103.90
2022-10-23T05:40:51.734Z,109.45
2022-10-23T05:43:18.492Z,74.25
2022-10-23T05:45:45.130Z,123.13
2022-10-23T05:48:22.898Z,112.85
2022-10-23T05:51:11.834Z,145.45
2022-10-23T05:53:41.675Z,128.45
2022-10-23T05:56:09.782Z,137.57
2022-10-23T05:58:36.922Z,118.80
2022-10-23T06:01:08.999Z,196.88
2022-10-23T06:03:37.079Z,136.13
2022-10-23T06:06:04.268Z,127.40
2022-10-23T06:08:32.160Z,141.68
2022-10-23T06:10:59.047Z,137.73
2022-10-23T06:13:25.872Z,127.05
2022-10-23T06:15:52.515Z,126.90
2022-10-23T06:18:19.160Z,127.15
2022-10-23T06:20:45.786Z,138.73
2022-10-23T06:23:12.449Z,130.77
2022-10-23T06:25:39.018Z,138.30
2022-10-23T06:28:05.660Z,138.35
2022-10-23T06:30:32.390Z,145.10
2022-10-23T06:33:02.141Z,138.57
2022-10-23T06:35:31.284Z,134.82
2022-10-23T06:37:58.181Z,136.90
2022-10-23T06:40:24.751Z,134.57
2022-10-23T06:42:51.332Z,140.45
2022-10-23T06:45:18.026Z,146.73
2022-10-23T06:47:44.918Z,159.93
2022-10-23T06:50:15.266Z,138.02
2022-10-23T06:52:46.966Z,149.95
2022-10-23T06:55:14.938Z,153.27
2022-10-23T06:57:42.127Z,141.82
2022-10-23T07:00:10.273Z,135.85
2022-10-23T07:02:37.042Z,236.85
2022-10-23T07:05:04.252Z,142.27
2022-10-23T07:07:31.318Z,184.23
2022-10-23T07:09:58.174Z,129.13
2022-10-23T07:12:25.296Z,128.90
2022-10-23T07:14:51.986Z,296.73
2022-10-23T07:17:18.541Z,218.95
2022-10-23T07:19:46.704Z,123.75
2022-10-23T07:22:15.884Z,126.55
2022-10-23T07:24:42.914Z,128.38
2022-10-23T07:27:09.977Z,136.52
2022-10-23T07:29:37.128Z,119.35
2022-10-23T07:32:04.736Z,153.55
2022-10-23T07:34:32.219Z,145.55
2022-10-23T07:36:58.930Z,108.05
2022-10-23T07:39:25.776Z,116.70
2022-10-23T07:41:52.618Z,141.25
2022-10-23T07:44:21.054Z,140.52
2022-10-23T07:46:49.865Z,151.13
2022-10-23T07:49:16.763Z,125.78
2022-10-23T07:51:45.528Z,180.18
2022-10-23T07:54:15.459Z,165.70
2022-10-23T07:56:42.293Z,193.05
2022-10-23T07:59:12.988Z,161.88
2022-10-23T08:01:40.842Z,149.13
2022-10-23T08:04:08.966Z,135.48
2022-10-23T08:06:36.000Z,204.07
2022-10-23T08:09:06.282Z,167.50
2022-10-23T08:11:35.872Z,152.48
2022-10-23T08:14:06.416Z,147.27
2022-10-23T08:16:34.917Z,139.52
2022-10-23T08:19:02.316Z,129.55
2022-10-23T08:21:29.009Z,136.65
2022-10-23T08:23:57.936Z,135.10
2022-10-23T08:26:26.255Z,130.93
2022-10-23T08:28:53.675Z,158.70
2022-10-23T08:31:21.575Z,174.50
2022-10-23T08:36:24.552Z,208.18
2022-10-23T08:38:55.706Z,210.38
2022-10-23T08:41:25.536Z,226.65
2022-10-23T08:44:01.164Z,226.82
2022-10-23T08:46:33.356Z,311.05
2022-10-23T08:49:18.542Z,226.93
2022-10-23T08:51:48.924Z,327.85
2022-10-23T08:54:47.660Z,225.52
2022-10-23T08:57:17.610Z,280.17
2022-10-23T08:59:58.915Z,279.75
2022-10-23T09:02:34.004Z,342.35
2022-10-23T09:05:00.902Z,318.50
2022-10-23T09:08:06.329Z,277.45
2022-10-23T09:10:51.762Z,282.63
2022-10-23T09:13:41.619Z,262.58
2022-10-23T09:16:22.831Z,272.88
2022-10-23T09:18:50.502Z,243.82
2022-10-23T09:21:17.316Z,277.67
2022-10-23T09:23:44.114Z,281.65
2022-10-23T09:26:18.628Z,268.67
2022-10-23T09:28:50.631Z,285.02
2022-10-23T09:31:19.575Z,287.63
2022-10-23T09:33:57.752Z,301.40
2022-10-23T09:36:27.584Z,353.30
2022-10-23T09:38:56.499Z,341.52
2022-10-23T09:41:28.840Z,363.20
2022-10-23T09:44:01.267Z,373.88
2022-10-23T09:46:44.766Z,348.10
2022-10-23T09:49:26.958Z,371.25
2022-10-23T09:52:24.751Z,436.58
2022-10-23T09:54:58.420Z,547.90
2022-10-23T09:57:38.288Z,375.30
2022-10-23T10:00:07.337Z,390.88
2022-10-23T10:02:36.783Z,361.80
2022-10-23T10:05:29.776Z,353.98
2022-10-23T10:08:10.939Z,381.10
2022-10-23T10:10:45.078Z,339.88
2022-10-23T10:16:11.788Z,466.80
2022-10-23T10:19:15.787Z,406.42
2022-10-23T10:22:17.459Z,428.20
2022-10-23T10:25:03.372Z,398.85
2022-10-23T10:27:42.323Z,419.00
2022-10-23T10:30:22.586Z,434.10
2022-10-23T10:33:03.154Z,425.13
2022-10-23T10:36:08.354Z,484.63
2022-10-23T10:41:22.862Z,540.35
2022-10-23T10:44:14.436Z,495.95
2022-10-23T10:46:49.734Z,475.45
2022-10-23T10:49:27.075Z,457.75
2022-10-23T10:52:25.016Z,459.63
2022-10-23T10:55:05.489Z,522.35
2022-10-23T10:57:46.681Z,514.30
2022-10-23T11:00:22.112Z,565.97
2022-10-23T11:02:53.556Z,490.60
2022-10-23T11:05:25.584Z,504.95
2022-10-23T11:08:13.689Z,518.47
2022-10-23T11:10:45.865Z,476.80
2022-10-23T11:13:29.225Z,468.38
2022-10-23T11:16:01.405Z,454.63
2022-10-23T11:18:31.049Z,415.15
2022-10-23T11:21:14.738Z,365.95
2022-10-23T11:27:08.969Z,500.15
2022-10-23T11:29:41.699Z,332.13
2022-10-23T11:32:44.477Z,414.00
2022-10-23T11:35:45.244Z,429.83
2022-10-23T11:38:24.291Z,363.30
2022-10-23T11:40:53.999Z,462.50
2022-10-23T11:43:33.828Z,375.60
2022-10-23T11:46:31.954Z,455.77
2022-10-23T11:49:02.372Z,466.52
2022-10-23T11:51:29.310Z,477.08
2022-10-23T11:54:25.048Z,470.58
2022-10-23T11:57:11.763Z,503.10
2022-10-23T11:59:48.124Z,478.08
2022-10-23T12:02:34.414Z,495.90
2022-10-23T12:05:22.721Z,526.67
2022-10-23T12:07:55.959Z,508.27
2022-10-23T12:10:55.557Z,508.23
2022-10-23T12:13:45.486Z,490.00
2022-10-23T12:16:13.122Z,509.48
2022-10-23T12:18:53.827Z,511.65
2022-10-23T12:21:28.511Z,494.88
2022-10-23T12:24:31.713Z,486.02
2022-10-23T12:27:27.484Z,502.73
2022-10-23T12:30:33.259Z,463.98
2022-10-23T12:32:59.791Z,477.45
2022-10-23T12:36:00.799Z,482.85
2022-10-23T12:38:33.853Z,441.20
2022-10-23T12:41:08.828Z,484.85
2022-10-23T12:43:38.255Z,495.17
2022-10-23T12:46:28.294Z,462.75
2022-10-23T12:48:59.312Z,487.27
2022-10-23T12:51:32.116Z,404.58
2022-10-23T12:53:59.151Z,460.77
2022-10-23T12:56:29.443Z,474.92
2022-10-23T12:59:02.152Z,478.10
2022-10-23T13:01:31.552Z,459.83
2022-10-23T13:04:34.915Z,494.17
2022-10-23T13:07:03.092Z,487.85
2022-10-23T13:09:42.043Z,408.27
2022-10-23T13:12:18.574Z,476.58
2022-10-23T13:15:15.906Z,454.27
2022-10-23T13:18:02.570Z,393.85
2022-10-23T13:20:29.196Z,453.98
2022-10-23T13:23:21.798Z,418.77
2022-10-23T13:26:00.388Z,441.55
2022-10-23T13:28:31.416Z,449.88
2022-10-23T13:31:10.138Z,436.02
2022-10-23T13:33:48.300Z,418.50
2022-10-23T13:36:14.984Z,399.80
2022-10-23T13:38:47.121Z,405.60
2022-10-23T13:41:16.924Z,358.73
2022-10-23T13:43:45.315Z,359.02
2022-10-23T13:46:16.658Z,319.85
2022-10-23T13:48:43.441Z,312.38
2022-10-23T13:51:15.017Z,321.40
2022-10-23T13:53:42.025Z,313.05
2022-10-23T13:56:12.475Z,300.02
2022-10-23T13:58:39.511Z,294.63
2022-10-23T14:01:07.197Z,301.65
2022-10-23T14:03:34.352Z,292.58
2022-10-23T14:06:01.436Z,335.33
2022-10-23T14:08:28.394Z,334.08
2022-10-23T14:10:55.371Z,327.85
2022-10-23T14:13:21.991Z,319.80
2022-10-23T14:15:58.168Z,302.48
2022-10-23T14:18:24.765Z,320.75
2022-10-23T14:20:51.374Z,310.80
2022-10-23T14:23:18.308Z,322.98
2022-10-23T14:25:44.922Z,322.70
2022-10-23T14:28:11.568Z,308.67
2022-10-23T14:30:38.567Z,280.23
2022-10-23T14:33:05.132Z,312.15
2022-10-23T14:35:31.781Z,295.95
2022-10-23T14:37:58.854Z,300.60
2022-10-23T14:40:25.574Z,315.70
2022-10-23T14:42:52.287Z,317.73
2022-10-23T14:45:19.736Z,291.00
2022-10-23T14:47:46.649Z,300.50
2022-10-23T14:50:14.095Z,330.23
2022-10-23T14:52:41.251Z,332.25
2022-10-23T14:55:08.459Z,332.10
2022-10-23T14:57:35.108Z,349.60
2022-10-23T15:00:01.974Z,370.60
2022-10-23T15:02:28.573Z,374.98
2022-10-23T15:04:55.585Z,382.83
2022-10-23T15:07:22.394Z,389.15
2022-10-23T15:09:50.739Z,357.98
2022-10-23T15:12:17.726Z,379.98
2022-10-23T15:14:44.727Z,408.52
2022-10-23T15:17:15.416Z,437.65
2022-10-23T15:19:42.555Z,419.75
2022-10-23T15:22:09.348Z,456.08
2022-10-23T15:24:36.186Z,480.65
2022-10-23T15:27:02.880Z,470.85
2022-10-23T15:29:29.819Z,483.10
2022-10-23T15:32:01.508Z,461.88
2022-10-23T15:34:29.254Z,532.05
2022-10-23T15:36:57.270Z,527.28
2022-10-23T15:39:26.545Z,521.78
2022-10-23T15:41:56.091Z,521.08
2022-10-23T15:44:25.336Z,534.42
2022-10-23T15:46:52.020Z,536.45
2022-10-23T15:49:20.239Z,540.83
2022-10-23T15:51:47.247Z,537.55
2022-10-23T15:54:19.320Z,525.72
2022-10-23T15:56:48.360Z,533.85
2022-10-23T15:59:16.018Z,524.25
2022-10-23T16:01:42.680Z,557.22
2022-10-23T16:04:09.786Z,547.40
2022-10-23T16:06:36.556Z,554.15
2022-10-23T16:09:03.899Z,551.60
2022-10-23T16:11:35.013Z,531.13
2022-10-23T16:14:03.665Z,500.45
2022-10-23T16:16:31.675Z,567.30
2022-10-23T16:19:00.719Z,551.03
2022-10-23T16:21:32.079Z,547.85
2022-10-23T16:24:00.976Z,575.20
2022-10-23T16:26:29.717Z,568.30
2022-10-23T16:28:59.079Z,563.78
2022-10-23T16:31:26.473Z,568.88
2022-10-23T16:33:53.900Z,570.63
2022-10-23T16:36:22.275Z,584.28
2022-10-23T16:38:48.907Z,573.25
2022-10-23T16:41:15.801Z,580.78
2022-10-23T16:43:42.562Z,587.78
2022-10-23T16:46:12.518Z,562.38
2022-10-23T16:48:40.261Z,557.92
2022-10-23T16:51:08.829Z,610.15
2022-10-23T16:53:35.715Z,599.72
2022-10-23T16:56:07.985Z,595.53
2022-10-23T16:58:35.454Z,603.60
2022-10-23T17:01:06.030Z,589.15
2022-10-23T17:03:44.645Z,568.95
2022-10-23T17:06:13.840Z,598.17
2022-10-23T17:08:41.368Z,468.85
2022-10-23T17:11:11.917Z,479.27
2022-10-23T17:13:41.864Z,547.13
2022-10-23T17:16:10.402Z,529.75
2022-10-23T17:18:41.289Z,515.42
2022-10-23T17:21:11.360Z,545.30
2022-10-23T17:23:38.007Z,479.45
2022-10-23T17:26:11.810Z,464.52
2022-10-23T17:28:41.669Z,484.77
2022-10-23T17:31:19.902Z,490.35
2022-10-23T17:33:48.112Z,491.00
2022-10-23T17:36:16.274Z,486.70
2022-10-23T17:38:43.985Z,468.38
2022-10-23T17:41:13.100Z,478.95
2022-10-23T17:43:40.980Z,482.02
2022-10-23T17:46:10.939Z,485.30
2022-10-23T17:48:40.172Z,469.52
2022-10-23T17:51:11.240Z,470.52
2022-10-23T17:53:40.989Z,470.17
2022-10-23T17:56:11.122Z,476.10
2022-10-23T17:58:37.816Z,516.25
2022-10-23T18:01:08.864Z,496.48
2022-10-23T18:03:37.860Z,473.17
2022-10-23T18:06:18.103Z,479.90
2022-10-23T18:08:45.459Z,488.00
2022-10-23T18:11:17.089Z,501.77
2022-10-23T18:13:44.104Z,477.58
2022-10-23T18:16:11.940Z,496.50
2022-10-23T18:18:40.935Z,523.53
2022-10-23T18:21:09.635Z,532.00
2022-10-23T18:23:37.104Z,518.97
2022-10-23T18:26:05.183Z,468.20
2022-10-23T18:28:32.691Z,470.42
2022-10-23T18:30:59.284Z,466.92
2022-10-23T18:33:26.645Z,473.27
2022-10-23T18:35:53.494Z,477.05
2022-10-23T18:38:21.075Z,469.80
2022-10-23T18:40:53.944Z,469.45
2022-10-23T18:43:41.971Z,482.98
2022-10-23T18:46:08.512Z,500.67
2022-10-23T18:48:35.811Z,541.45
2022-10-23T18:51:02.524Z,509.15
2022-10-23T18:53:29.285Z,535.75
2022-10-23T18:55:56.307Z,532.72
2022-10-23T18:58:22.890Z,493.35
2022-10-23T19:00:50.067Z,484.27
2022-10-23T19:03:16.892Z,533.33
2022-10-23T19:05:45.089Z,546.63
2022-10-23T19:08:12.601Z,522.17
2022-10-23T19:10:42.482Z,488.08
2022-10-23T19:13:09.113Z,565.42
2022-10-23T19:15:37.497Z,507.67
2022-10-23T19:18:07.138Z,495.80
2022-10-23T19:20:34.055Z,477.55
2022-10-23T19:23:02.413Z,474.70
2022-10-23T19:25:32.962Z,501.35
2022-10-23T19:28:01.997Z,482.42
2022-10-23T19:30:29.373Z,497.02
2022-10-23T19:32:56.189Z,500.30
2022-10-23T19:35:23.340Z,486.58
2022-10-23T19:37:50.653Z,507.38
2022-10-23T19:40:17.882Z,497.00
2022-10-23T19:42:44.573Z,504.88
2022-10-23T19:45:14.321Z,498.05
2022-10-23T19:47:41.483Z,468.90
2022-10-23T19:50:09.250Z,482.13
2022-10-23T19:52:36.191Z,486.25
2022-10-23T19:55:04.336Z,491.38
2022-10-23T19:57:33.902Z,539.88
2022-10-23T20:00:01.719Z,517.50
2022-10-23T20:02:28.852Z,484.33
2022-10-23T20:04:55.757Z,540.63
2022-10-23T20:07:22.954Z,584.38
2022-10-23T20:09:49.699Z,558.17
2022-10-23T20:12:16.927Z,588.70
2022-10-23T20:14:43.746Z,537.38
2022-10-23T20:17:10.651Z,587.42
2022-10-23T20:19:37.459Z,615.50
2022-10-23T20:22:04.168Z,618.65
2022-10-23T20:24:30.991Z,570.65
2022-10-23T20:26:57.665Z,613.72
2022-10-23T20:29:25.052Z,532.63
2022-10-23T20:31:52.382Z,549.20
2022-10-23T20:34:19.658Z,562.05
2022-10-23T20:36:51.322Z,606.30
2022-10-23T20:39:24.744Z,632.95
2022-10-23T20:41:51.886Z,617.25
2022-10-23T20:44:19.368Z,623.47
2022-10-23T20:46:46.374Z,612.17
2022-10-23T20:49:14.141Z,594.13
2022-10-23T20:51:41.174Z,597.95
2022-10-23T20:54:08.147Z,551.15
2022-10-23T20:56:37.083Z,559.35
2022-10-23T20:59:11.184Z,549.20
2022-10-23T21:01:40.678Z,573.17
2022-10-23T21:04:07.328Z,593.90
2022-10-23T21:06:46.193Z,613.13
2022-10-23T21:09:21.813Z,608.78
2022-10-23T21:11:48.531Z,590.60
2022-10-23T21:14:15.111Z,557.70
2022-10-23T21:16:44.600Z,613.17
2022-10-23T21:19:16.082Z,606.38
2022-10-23T21:21:43.633Z,616.28
2022-10-23T21:24:14.884Z,607.53
2022-10-23T21:26:41.765Z,625.28
2022-10-23T21:29:23.999Z,618.20
2022-10-23T21:31:56.465Z,598.28
2022-10-23T21:34:25.510Z,595.67
2022-10-23T21:37:12.945Z,574.33
2022-10-23T21:39:39.222Z,535.42
2022-10-23T21:42:05.936Z,625.33
2022-10-23T21:44:32.871Z,606.95
2022-10-23T21:46:59.709Z,614.28
2022-10-23T21:49:26.289Z,540.22
2022-10-23T21:51:55.063Z,565.40
2022-10-23T21:54:22.012Z,576.28
2022-10-23T21:56:51.056Z,461.95
2022-10-23T21:59:20.439Z,493.13
2022-10-23T22:01:48.755Z,532.38
2022-10-23T22:04:19.261Z,496.58
2022-10-23T22:06:47.703Z,443.30
2022-10-23T22:09:19.548Z,490.98
2022-10-23T22:11:46.888Z,495.73
2022-10-23T22:14:13.512Z,467.75
2022-10-23T22:16:42.122Z,490.45
2022-10-23T22:19:11.396Z,470.52
2022-10-23T22:21:38.066Z,519.00
2022-10-23T22:24:04.927Z,467.08
2022-10-23T22:26:38.290Z,458.25
2022-10-23T22:29:11.124Z,472.23
2022-10-23T22:31:39.378Z,458.67
2022-10-23T22:34:18.965Z,447.55
2022-10-23T22:36:54.680Z,455.45
2022-10-23T22:39:21.588Z,532.72
2022-10-23T22:41:48.256Z,507.80
2022-10-23T22:44:15.561Z,508.08
2022-10-23T22:46:42.604Z,542.25
2022-10-23T22:49:09.509Z,553.33
2022-10-23T22:51:37.918Z,494.48
2022-10-23T22:54:04.914Z,542.97
2022-10-23T22:56:31.582Z,543.90
2022-10-23T22:58:58.577Z,545.90
2022-10-23T23:01:34.962Z,546.45
2022-10-23T23:04:13.772Z,543.38
2022-10-23T23:06:46.643Z,550.28
2022-10-23T23:09:17.901Z,550.70
2022-10-23T23:11:51.714Z,514.03
2022-10-23T23:14:23.026Z,509.45
2022-10-23T23:16:52.270Z,533.97
2022-10-23T23:19:18.992Z,534.95
2022-10-23T23:21:45.916Z,544.60
2022-10-23T23:24:12.638Z,538.38
2022-10-23T23:26:39.276Z,530.00
2022-10-23T23:29:06.432Z,542.55
2022-10-23T23:31:33.065Z,524.50
2022-10-23T23:33:59.756Z,475.55
2022-10-23T23:36:27.477Z,482.85
2022-10-23T23:38:55.441Z,500.95
2022-10-23T23:41:23.264Z,467.75
2022-10-23T23:43:50.926Z,489.52
2022-10-23T23:46:18.155Z,519.08
2022-10-23T23:48:48.049Z,527.40
2022-10-23T23:51:16.718Z,525.08
2022-10-23T23:53:43.471Z,542.40
2022-10-23T23:56:10.426Z,517.47
2022-10-23T23:58:37.355Z,519.35
